createdAt,value
2019-06-08T00:00:38.839Z,45.40
2019-06-08T00:03:06.835Z,44.00
2019-06-08T00:05:34.740Z,42.60
2019-06-08T00:08:04.804Z,43.30
2019-06-08T00:10:32.883Z,43.00
2019-06-08T00:13:03.840Z,42.30
2019-06-08T00:15:35.280Z,44.00
2019-06-08T00:18:10.866Z,44.20
2019-06-08T00:20:40.320Z,44.90
2019-06-08T00:23:08.855Z,44.10
2019-06-08T00:25:36.671Z,42.80
2019-06-08T00:28:05.037Z,41.70
2019-06-08T00:30:37.252Z,43.70
2019-06-08T00:33:05.223Z,43.10
2019-06-08T00:35:34.555Z,43.20
2019-06-08T00:38:02.292Z,42.10
2019-06-08T00:40:30.181Z,41.50
2019-06-08T00:42:58.024Z,42.70
2019-06-08T00:45:25.918Z,41.00
2019-06-08T00:47:53.718Z,42.60
2019-06-08T00:50:22.865Z,40.50
2019-06-08T00:52:50.833Z,41.60
2019-06-08T00:55:19.480Z,41.40
2019-06-08T00:57:47.299Z,39.60
2019-06-08T01:00:16.480Z,40.30
2019-06-08T01:02:44.399Z,38.70
2019-06-08T01:05:12.091Z,38.60
2019-06-08T01:07:39.975Z,37.90
2019-06-08T01:10:08.242Z,38.80
2019-06-08T01:12:36.063Z,38.20
2019-06-08T01:15:04.913Z,39.90
2019-06-08T01:17:32.680Z,38.30
2019-06-08T01:20:00.742Z,38.20
2019-06-08T01:22:29.546Z,36.50
2019-06-08T01:24:57.468Z,37.70
2019-06-08T01:27:26.078Z,37.20
2019-06-08T01:29:53.902Z,37.10
2019-06-08T01:32:22.847Z,37.20
2019-06-08T01:34:50.705Z,36.80
2019-06-08T01:37:18.568Z,36.50
2019-06-08T01:39:46.274Z,37.20
2019-06-08T01:42:13.941Z,35.70
2019-06-08T01:44:41.763Z,37.40
2019-06-08T01:47:09.637Z,37.60
2019-06-08T01:49:37.352Z,37.70
2019-06-08T01:52:05.180Z,37.30
2019-06-08T01:54:33.352Z,35.90
2019-06-08T01:57:01.213Z,37.60
2019-06-08T01:59:29.633Z,35.80
2019-06-08T02:01:57.695Z,36.80
2019-06-08T02:04:26.037Z,36.30
2019-06-08T02:06:54.071Z,36.50
2019-06-08T02:09:21.914Z,36.00
2019-06-08T02:11:49.622Z,35.70
2019-06-08T02:14:17.314Z,36.30
2019-06-08T02:16:46.979Z,35.60
2019-06-08T02:19:14.705Z,35.30
2019-06-08T02:21:44.545Z,35.40
2019-06-08T02:24:12.347Z,34.00
2019-06-08T02:26:40.236Z,33.50
2019-06-08T02:29:08.485Z,34.90
2019-06-08T02:31:37.704Z,35.30
2019-06-08T02:34:05.706Z,35.10
2019-06-08T02:36:35.390Z,33.60
2019-06-08T02:39:05.288Z,34.40
2019-06-08T02:41:35.319Z,34.00
2019-06-08T02:44:03.369Z,33.00
2019-06-08T02:46:31.558Z,34.50
2019-06-08T02:49:04.413Z,33.80
2019-06-08T02:51:33.205Z,34.00
2019-06-08T02:54:01.717Z,34.50
2019-06-08T02:56:32.034Z,33.80
2019-06-08T02:59:01.317Z,33.80
2019-06-08T03:01:33.713Z,33.20
2019-06-08T03:04:01.693Z,34.80
2019-06-08T03:06:32.216Z,33.80
2019-06-08T03:09:04.109Z,34.80
2019-06-08T03:11:34.834Z,34.80
2019-06-08T03:14:02.974Z,33.40
2019-06-08T03:16:31.279Z,33.90
2019-06-08T03:18:59.335Z,33.80
2019-06-08T03:21:27.101Z,33.20
2019-06-08T03:23:54.775Z,33.60
2019-06-08T03:26:22.675Z,34.70
2019-06-08T03:28:50.457Z,33.80
2019-06-08T03:31:18.317Z,34.10
2019-06-08T03:33:54.432Z,34.60
2019-06-08T03:36:16.003Z,34.50
2019-06-08T03:38:44.685Z,34.30
2019-06-08T03:41:12.879Z,35.80
2019-06-08T03:43:42.399Z,35.10
2019-06-08T03:46:10.355Z,35.80
2019-06-08T03:48:40.067Z,35.90
2019-06-08T03:51:07.670Z,35.60
2019-06-08T03:53:35.825Z,36.20
2019-06-08T03:56:05.097Z,36.20
2019-06-08T03:58:34.112Z,36.50
2019-06-08T04:01:02.483Z,34.80
2019-06-08T04:03:30.352Z,37.00
2019-06-08T04:05:58.024Z,36.20
2019-06-08T04:08:25.685Z,36.30
2019-06-08T04:10:53.554Z,35.70
2019-06-08T04:13:21.239Z,35.80
2019-06-08T04:15:50.258Z,36.90
2019-06-08T04:18:18.310Z,37.20
2019-06-08T04:20:48.516Z,39.50
2019-06-08T04:23:15.867Z,38.40
2019-06-08T04:25:44.972Z,38.90
2019-06-08T04:28:13.405Z,38.60
2019-06-08T04:30:42.912Z,38.60
2019-06-08T04:33:10.940Z,38.90
2019-06-08T04:35:40.134Z,38.20
2019-06-08T04:38:08.055Z,38.30
2019-06-08T04:40:35.970Z,37.10
2019-06-08T04:43:04.167Z,37.40
2019-06-08T04:45:32.043Z,38.60
2019-06-08T04:47:59.722Z,38.50
2019-06-08T04:50:27.404Z,38.80
2019-06-08T04:52:55.242Z,38.20
2019-06-08T04:55:22.933Z,38.00
2019-06-08T04:57:50.896Z,38.60
2019-06-08T05:00:19.932Z,37.80
2019-06-08T05:02:49.286Z,38.40
2019-06-08T05:05:17.195Z,37.80
2019-06-08T05:07:45.946Z,37.90
2019-06-08T05:10:15.350Z,39.10
2019-06-08T05:12:43.451Z,38.40
2019-06-08T05:15:11.628Z,36.90
2019-06-08T05:17:39.461Z,37.50
2019-06-08T05:20:07.838Z,38.20
2019-06-08T05:22:36.474Z,38.30
2019-06-08T05:25:04.917Z,37.80
2019-06-08T05:27:32.648Z,39.10
2019-06-08T05:30:08.060Z,40.30
2019-06-08T05:32:30.088Z,41.60
2019-06-08T05:34:58.059Z,41.30
2019-06-08T05:37:27.563Z,40.50
2019-06-08T05:39:55.270Z,40.70
2019-06-08T05:42:23.124Z,40.70
2019-06-08T05:44:50.937Z,41.40
2019-06-08T05:47:18.653Z,41.10
2019-06-08T05:49:48.169Z,41.80
2019-06-08T05:52:15.851Z,42.80
2019-06-08T05:54:43.845Z,44.40
2019-06-08T05:57:11.694Z,47.20
2019-06-08T05:59:40.050Z,47.00
2019-06-08T06:02:09.171Z,48.30
2019-06-08T06:04:37.039Z,49.80
2019-06-08T06:07:04.766Z,48.50
2019-06-08T06:09:32.454Z,50.30
2019-06-08T06:12:00.324Z,49.20
2019-06-08T06:14:28.204Z,50.10
2019-06-08T06:16:55.898Z,50.30
2019-06-08T06:19:23.741Z,51.90
2019-06-08T06:21:52.398Z,55.60
2019-06-08T06:24:20.302Z,59.10
2019-06-08T06:26:49.422Z,60.50
2019-06-08T06:29:17.370Z,67.60
2019-06-08T06:31:45.824Z,72.10
2019-06-08T06:34:13.729Z,74.10
2019-06-08T06:36:41.757Z,77.40
2019-06-08T06:39:09.563Z,78.00
2019-06-08T06:41:37.455Z,79.10
2019-06-08T06:44:05.290Z,81.30
2019-06-08T06:46:33.044Z,82.80
2019-06-08T06:49:00.878Z,82.50
2019-06-08T06:51:28.652Z,79.60
2019-06-08T06:53:56.690Z,81.70
2019-06-08T06:56:24.478Z,81.60
2019-06-08T06:58:52.146Z,80.50
2019-06-08T07:01:20.112Z,76.60
2019-06-08T07:03:48.107Z,76.30
2019-06-08T07:06:15.861Z,75.30
2019-06-08T07:08:44.083Z,74.20
2019-06-08T07:11:12.103Z,73.20
2019-06-08T07:13:39.797Z,73.00
2019-06-08T07:16:17.874Z,69.70
2019-06-08T07:18:37.355Z,71.00
2019-06-08T07:21:05.341Z,69.40
2019-06-08T07:23:33.199Z,68.70
2019-06-08T07:26:01.071Z,66.70
2019-06-08T07:28:28.893Z,63.40
2019-06-08T07:30:56.591Z,63.00
2019-06-08T07:33:24.695Z,61.30
2019-06-08T07:35:53.380Z,62.80
2019-06-08T07:38:21.281Z,62.90
2019-06-08T07:40:49.958Z,60.40
2019-06-08T07:43:19.633Z,57.60
2019-06-08T07:45:47.858Z,57.80
2019-06-08T07:48:15.794Z,59.50
2019-06-08T07:50:43.641Z,57.60
2019-06-08T07:53:11.316Z,55.30
2019-06-08T07:55:40.090Z,55.00
2019-06-08T07:58:07.890Z,54.90
2019-06-08T08:00:35.771Z,51.80
2019-06-08T08:03:03.702Z,48.10
2019-06-08T08:05:31.936Z,44.60
2019-06-08T08:07:59.666Z,45.80
2019-06-08T08:10:29.197Z,46.90
2019-06-08T08:12:58.923Z,42.60
2019-06-08T08:15:26.807Z,41.30
2019-06-08T08:17:55.484Z,40.60
2019-06-08T08:20:23.450Z,43.50
2019-06-08T08:22:56.094Z,41.00
2019-06-08T08:25:20.994Z,40.90
2019-06-08T08:27:50.232Z,42.60
2019-06-08T08:30:20.330Z,42.90
2019-06-08T08:32:50.720Z,43.80
2019-06-08T08:35:18.578Z,43.50
2019-06-08T08:37:47.396Z,43.00
2019-06-08T08:40:17.859Z,44.20
2019-06-08T08:42:48.129Z,42.40
2019-06-08T08:45:18.166Z,42.00
2019-06-08T08:47:45.603Z,39.90
2019-06-08T08:50:13.535Z,38.80
2019-06-08T08:52:41.475Z,38.20
2019-06-08T08:55:09.628Z,37.90
2019-06-08T08:57:38.565Z,37.30
2019-06-08T09:00:08.530Z,36.10
2019-06-08T09:02:37.463Z,37.10
2019-06-08T09:05:05.477Z,38.00
2019-06-08T09:07:33.439Z,38.90
2019-06-08T09:10:03.484Z,40.80
2019-06-08T09:12:31.001Z,42.10
2019-06-08T09:15:01.868Z,41.70
2019-06-08T09:17:28.526Z,42.30
2019-06-08T09:19:58.805Z,42.50
2019-06-08T09:22:28.225Z,40.60
2019-06-08T09:24:56.886Z,39.90
2019-06-08T09:27:27.974Z,36.30
2019-06-08T09:29:57.435Z,35.90
2019-06-08T09:32:29.352Z,34.50
2019-06-08T09:34:59.553Z,34.20
2019-06-08T09:37:28.838Z,32.70
2019-06-08T09:39:58.917Z,32.00
2019-06-08T09:42:28.377Z,32.30
2019-06-08T09:45:00.093Z,32.00
2019-06-08T09:47:27.897Z,32.90
2019-06-08T09:49:58.762Z,33.40
2019-06-08T09:52:28.143Z,32.90
2019-06-08T09:54:59.287Z,32.50
2019-06-08T09:57:28.279Z,33.10
2019-06-08T09:59:57.114Z,35.20
2019-06-08T10:02:25.166Z,35.10
2019-06-08T10:04:54.112Z,34.30
2019-06-08T10:07:22.022Z,34.40
2019-06-08T10:09:50.220Z,34.20
2019-06-08T10:12:18.330Z,30.90
2019-06-08T10:14:48.794Z,30.90
2019-06-08T10:17:20.626Z,32.30
2019-06-08T10:19:47.549Z,35.40
2019-06-08T10:22:17.990Z,40.20
2019-06-08T10:24:44.996Z,41.40
2019-06-08T10:27:12.772Z,44.20
2019-06-08T10:29:40.738Z,45.60
2019-06-08T10:32:10.449Z,44.20
2019-06-08T10:34:38.769Z,42.90
2019-06-08T10:37:12.698Z,43.50
2019-06-08T10:39:37.939Z,43.40
2019-06-08T10:42:07.156Z,44.40
2019-06-08T10:44:38.053Z,45.70
2019-06-08T10:47:06.668Z,43.70
2019-06-08T10:49:38.446Z,44.30
2019-06-08T10:52:10.778Z,37.50
2019-06-08T10:54:37.830Z,37.60
2019-06-08T10:57:07.638Z,37.30
2019-06-08T10:59:37.323Z,38.90
2019-06-08T11:02:09.446Z,38.80
2019-06-08T11:04:34.975Z,39.00
2019-06-08T11:07:12.602Z,40.70
2019-06-08T11:09:36.667Z,40.40
2019-06-08T11:12:07.696Z,38.80
2019-06-08T11:14:34.163Z,38.00
2019-06-08T11:17:02.812Z,38.60
2019-06-08T11:19:31.101Z,35.50
2019-06-08T11:22:02.698Z,33.30
2019-06-08T11:24:28.924Z,37.20
2019-06-08T11:26:57.744Z,43.30
2019-06-08T11:29:27.556Z,49.90
2019-06-08T11:31:58.634Z,56.10
2019-06-08T11:34:28.596Z,62.60
2019-06-08T11:36:59.648Z,62.60
2019-06-08T11:39:28.694Z,63.00
2019-06-08T11:41:58.729Z,55.90
2019-06-08T11:44:27.600Z,57.50
2019-06-08T11:46:57.508Z,62.10
2019-06-08T11:49:27.714Z,63.80
2019-06-08T11:51:54.845Z,64.60
2019-06-08T11:54:34.296Z,60.40
2019-06-08T11:56:53.411Z,56.80
2019-06-08T11:59:21.848Z,58.00
2019-06-08T12:01:50.560Z,55.40
2019-06-08T12:04:18.603Z,58.00
2019-06-08T12:06:48.349Z,66.70
2019-06-08T12:09:18.482Z,64.50
2019-06-08T12:11:48.008Z,66.90
2019-06-08T12:14:17.555Z,62.70
2019-06-08T12:16:45.412Z,60.80
2019-06-08T12:19:16.659Z,55.30
2019-06-08T12:21:42.850Z,52.50
2019-06-08T12:24:12.266Z,49.80
2019-06-08T12:26:40.181Z,47.60
2019-06-08T12:29:11.294Z,46.20
2019-06-08T12:31:38.052Z,47.00
2019-06-08T12:34:07.050Z,49.50
2019-06-08T12:36:37.429Z,46.40
2019-06-08T12:39:08.196Z,43.80
2019-06-08T12:41:37.711Z,41.80
2019-06-08T12:44:07.509Z,42.80
2019-06-08T12:46:38.343Z,34.10
2019-06-08T12:49:05.161Z,34.30
2019-06-08T12:51:33.035Z,29.80
2019-06-08T12:54:00.725Z,28.70
2019-06-08T12:56:28.896Z,30.40
2019-06-08T12:58:57.899Z,26.80
2019-06-08T13:01:28.241Z,26.20
2019-06-08T13:03:57.916Z,27.60
2019-06-08T13:06:27.971Z,27.30
2019-06-08T13:08:57.483Z,25.70
2019-06-08T13:11:28.305Z,20.50
2019-06-08T13:13:56.117Z,21.70
2019-06-08T13:16:24.687Z,20.50
2019-06-08T13:18:52.701Z,19.70
2019-06-08T13:21:32.013Z,21.90
2019-06-08T13:23:52.179Z,29.40
2019-06-08T13:26:26.983Z,40.10
2019-06-08T13:28:49.722Z,53.70
2019-06-08T13:31:21.864Z,71.90
2019-06-08T13:33:48.592Z,73.60
2019-06-08T13:36:19.296Z,67.70
2019-06-08T13:38:47.923Z,72.60
2019-06-08T13:41:19.394Z,67.80
2019-06-08T13:43:47.889Z,65.80
2019-06-08T13:46:18.613Z,57.80
2019-06-08T13:48:48.093Z,60.60
2019-06-08T13:51:19.046Z,53.40
2019-06-08T13:53:47.898Z,54.10
2019-06-08T13:56:15.109Z,55.90
2019-06-08T13:58:42.982Z,46.60
2019-06-08T14:01:10.685Z,44.90
2019-06-08T14:03:38.837Z,39.60
2019-06-08T14:06:07.694Z,38.70
2019-06-08T14:08:36.354Z,38.50
2019-06-08T14:11:05.328Z,35.10
2019-06-08T14:13:41.981Z,35.70
2019-06-08T14:16:11.584Z,37.10
2019-06-08T14:18:39.525Z,35.30
2019-06-08T14:21:07.481Z,27.20
2019-06-08T14:23:35.539Z,27.80
2019-06-08T14:26:03.232Z,29.20
2019-06-08T14:28:30.945Z,28.60
2019-06-08T14:31:00.668Z,28.20
2019-06-08T14:33:32.986Z,26.50
2019-06-08T14:35:59.214Z,30.20
2019-06-08T14:38:35.201Z,26.40
2019-06-08T14:40:59.042Z,25.50
2019-06-08T14:43:29.468Z,23.50
2019-06-08T14:45:57.913Z,23.60
2019-06-08T14:48:31.700Z,22.90
2019-06-08T14:50:58.218Z,22.30
2019-06-08T14:53:25.211Z,23.50
2019-06-08T14:56:05.722Z,23.60
2019-06-08T14:58:24.079Z,21.10
2019-06-08T15:00:52.617Z,20.30
2019-06-08T15:03:23.235Z,25.60
2019-06-08T15:05:50.932Z,33.10
2019-06-08T15:08:19.557Z,40.90
2019-06-08T15:10:49.601Z,41.30
2019-06-08T15:13:18.856Z,41.90
2019-06-08T15:15:47.080Z,36.80
2019-06-08T15:18:14.765Z,35.40
2019-06-08T15:20:42.652Z,33.80
2019-06-08T15:23:11.725Z,34.60
2019-06-08T15:25:40.871Z,35.00
2019-06-08T15:28:08.561Z,31.60
2019-06-08T15:30:38.055Z,34.60
2019-06-08T15:33:06.097Z,33.20
2019-06-08T15:35:37.717Z,29.50
2019-06-08T15:38:05.357Z,27.70
2019-06-08T15:40:33.298Z,27.60
2019-06-08T15:43:04.159Z,27.70
2019-06-08T15:45:35.195Z,26.80
2019-06-08T15:48:02.900Z,21.00
2019-06-08T15:50:30.583Z,20.30
2019-06-08T15:53:00.106Z,16.90
2019-06-08T15:55:31.235Z,16.80
2019-06-08T15:57:58.469Z,17.60
2019-06-08T16:00:29.282Z,18.20
2019-06-08T16:02:56.406Z,18.30
2019-06-08T16:05:25.539Z,18.00
2019-06-08T16:07:53.567Z,18.10
2019-06-08T16:10:21.262Z,19.30
2019-06-08T16:12:48.969Z,15.50
2019-06-08T16:15:16.797Z,15.80
2019-06-08T16:17:44.545Z,16.60
2019-06-08T16:20:12.384Z,15.90
2019-06-08T16:22:40.429Z,16.00
2019-06-08T16:25:08.263Z,14.60
2019-06-08T16:27:36.062Z,13.10
2019-06-08T16:30:09.445Z,13.40
2019-06-08T16:32:35.423Z,13.50
2019-06-08T16:35:03.466Z,13.00
2019-06-08T16:37:31.662Z,14.20
2019-06-08T16:40:00.017Z,14.40
2019-06-08T16:42:27.900Z,14.10
2019-06-08T16:44:55.770Z,14.10
2019-06-08T16:47:23.633Z,14.70
2019-06-08T16:49:52.235Z,14.60
2019-06-08T16:52:19.985Z,15.30
2019-06-08T16:54:47.954Z,15.00
2019-06-08T16:57:15.662Z,15.10
2019-06-08T16:59:43.365Z,15.60
2019-06-08T17:02:11.258Z,16.30
2019-06-08T17:04:39.256Z,16.30
2019-06-08T17:07:07.244Z,15.80
2019-06-08T17:09:35.948Z,16.40
2019-06-08T17:12:03.819Z,15.60
2019-06-08T17:14:31.982Z,15.70
2019-06-08T17:16:59.998Z,16.50
2019-06-08T17:19:27.857Z,14.00
2019-06-08T17:21:59.859Z,13.00
2019-06-08T17:24:27.753Z,12.90
2019-06-08T17:26:55.442Z,12.60
2019-06-08T17:29:24.271Z,13.10
2019-06-08T17:31:52.163Z,12.40
2019-06-08T17:34:20.821Z,11.60
2019-06-08T17:36:48.942Z,12.10
2019-06-08T17:39:16.824Z,10.80
2019-06-08T17:41:44.537Z,11.60
2019-06-08T17:44:12.564Z,11.80
2019-06-08T17:46:41.197Z,11.60
2019-06-08T17:49:09.621Z,12.60
2019-06-08T17:51:37.384Z,12.90
2019-06-08T17:54:05.136Z,13.40
2019-06-08T17:56:33.162Z,12.90
2019-06-08T17:59:00.852Z,14.20
2019-06-08T18:01:28.688Z,13.30
2019-06-08T18:03:57.457Z,14.20
2019-06-08T18:06:27.175Z,14.80
2019-06-08T18:08:55.258Z,14.90
2019-06-08T18:11:23.103Z,15.10
2019-06-08T18:13:51.000Z,15.40
2019-06-08T18:16:20.061Z,15.60
2019-06-08T18:18:48.041Z,15.20
2019-06-08T18:21:17.830Z,15.40
2019-06-08T18:23:48.024Z,14.70
2019-06-08T18:26:17.275Z,15.80
2019-06-08T18:28:46.199Z,16.20
2019-06-08T18:31:14.824Z,16.30
2019-06-08T18:33:45.205Z,16.50
2019-06-08T18:36:12.542Z,15.40
2019-06-08T18:38:41.368Z,16.70
2019-06-08T18:41:10.370Z,16.50
2019-06-08T18:43:40.052Z,15.40
2019-06-08T18:46:08.221Z,16.70
2019-06-08T18:48:39.547Z,16.10
2019-06-08T18:51:08.313Z,16.80
2019-06-08T18:53:54.112Z,16.80
2019-06-08T18:56:08.019Z,17.10
2019-06-08T18:58:35.729Z,17.00
2019-06-08T19:01:03.584Z,17.30
2019-06-08T19:03:33.125Z,17.40
2019-06-08T19:06:01.108Z,17.40
2019-06-08T19:08:29.170Z,17.80
2019-06-08T19:10:57.364Z,17.80
2019-06-08T19:13:27.161Z,18.50
2019-06-08T19:15:55.019Z,17.80
2019-06-08T19:18:22.884Z,19.60
2019-06-08T19:20:52.980Z,19.50
2019-06-08T19:23:21.479Z,20.10
2019-06-08T19:25:49.689Z,20.30
2019-06-08T19:28:32.658Z,21.00
2019-06-08T19:30:50.164Z,21.10
2019-06-08T19:33:17.990Z,21.30
2019-06-08T19:35:52.900Z,21.50
2019-06-08T19:38:18.001Z,21.90
2019-06-08T19:40:46.102Z,22.50
2019-06-08T19:43:14.154Z,22.10
2019-06-08T19:45:42.485Z,23.30
2019-06-08T19:48:11.445Z,23.40
2019-06-08T19:50:40.165Z,23.20
2019-06-08T19:53:08.966Z,24.90
2019-06-08T19:55:36.955Z,25.20
2019-06-08T19:58:05.150Z,25.50
2019-06-08T20:00:32.936Z,26.40
2019-06-08T20:03:00.666Z,26.50
2019-06-08T20:05:28.697Z,25.90
2019-06-08T20:07:57.420Z,26.40
2019-06-08T20:10:27.885Z,26.20
2019-06-08T20:12:57.587Z,26.00
2019-06-08T20:15:25.229Z,26.70
2019-06-08T20:17:54.061Z,27.50
2019-06-08T20:20:21.930Z,26.30
2019-06-08T20:22:51.785Z,25.40
2019-06-08T20:25:19.565Z,26.60
2019-06-08T20:27:49.860Z,26.70
2019-06-08T20:30:17.540Z,26.40
2019-06-08T20:32:47.197Z,26.60
2019-06-08T20:35:17.427Z,27.10
2019-06-08T20:37:45.737Z,27.30
2019-06-08T20:40:14.435Z,27.40
2019-06-08T20:42:42.487Z,28.20
2019-06-08T20:45:10.306Z,27.10
2019-06-08T20:47:39.112Z,27.60
2019-06-08T20:50:07.634Z,28.20
2019-06-08T20:52:37.792Z,28.90
2019-06-08T20:55:07.743Z,28.20
2019-06-08T20:57:35.652Z,29.10
2019-06-08T21:00:11.026Z,28.40
2019-06-08T21:02:37.242Z,28.80
2019-06-08T21:05:07.645Z,28.70
2019-06-08T21:07:36.613Z,30.00
2019-06-08T21:10:05.164Z,29.40
2019-06-08T21:12:32.923Z,29.60
2019-06-08T21:15:00.602Z,31.00
2019-06-08T21:17:28.644Z,30.50
2019-06-08T21:19:57.961Z,31.60
2019-06-08T21:22:27.744Z,30.40
2019-06-08T21:24:59.802Z,32.00
2019-06-08T21:27:27.596Z,31.20
2019-06-08T21:30:02.441Z,32.40
2019-06-08T21:32:24.984Z,32.20
2019-06-08T21:34:53.765Z,32.40
2019-06-08T21:37:22.048Z,32.60
2019-06-08T21:39:52.750Z,32.30
2019-06-08T21:42:19.461Z,32.30
2019-06-08T21:44:48.992Z,33.80
2019-06-08T21:47:17.329Z,33.90
2019-06-08T21:49:47.531Z,33.70
2019-06-08T21:52:14.925Z,34.90
2019-06-08T21:54:42.816Z,33.90
2019-06-08T21:57:12.591Z,35.80
2019-06-08T21:59:40.308Z,35.60
2019-06-08T22:02:08.873Z,35.80
2019-06-08T22:04:38.006Z,36.00
2019-06-08T22:07:07.117Z,35.80
2019-06-08T22:09:37.287Z,35.30
2019-06-08T22:12:06.985Z,35.10
2019-06-08T22:14:37.776Z,35.80
2019-06-08T22:17:07.916Z,36.60
2019-06-08T22:19:38.091Z,38.00
2019-06-08T22:22:08.369Z,38.40
2019-06-08T22:24:38.279Z,38.70
2019-06-08T22:27:07.181Z,38.70
2019-06-08T22:29:35.231Z,38.50
2019-06-08T22:32:03.941Z,38.50
2019-06-08T22:34:31.802Z,38.60
2019-06-08T22:37:00.433Z,39.50
2019-06-08T22:39:28.484Z,38.30
2019-06-08T22:41:58.534Z,38.40
2019-06-08T22:44:28.256Z,38.30
2019-06-08T22:46:58.430Z,39.00
2019-06-08T22:49:27.838Z,38.60
2019-06-08T22:51:59.132Z,39.60
2019-06-08T22:54:27.602Z,40.50
2019-06-08T22:57:01.068Z,40.10
2019-06-08T22:59:27.676Z,39.80
2019-06-08T23:01:58.355Z,38.80
2019-06-08T23:04:27.612Z,38.50
2019-06-08T23:07:04.014Z,40.40
2019-06-08T23:09:30.312Z,40.60
2019-06-08T23:12:01.366Z,40.30
2019-06-08T23:14:28.558Z,41.10
2019-06-08T23:16:59.585Z,41.00
2019-06-08T23:19:26.450Z,40.90
2019-06-08T23:21:55.221Z,41.60
2019-06-08T23:24:23.183Z,41.10
2019-06-08T23:26:50.893Z,40.20
2019-06-08T23:29:18.657Z,41.30
2019-06-08T23:31:47.884Z,42.60
2019-06-08T23:34:18.170Z,42.70
2019-06-08T23:36:54.907Z,43.00
2019-06-08T23:39:17.987Z,42.90
2019-06-08T23:41:48.146Z,43.20
2019-06-08T23:44:17.658Z,42.80
2019-06-08T23:46:47.487Z,43.20
2019-06-08T23:49:15.131Z,42.60
2019-06-08T23:51:42.973Z,43.90
2019-06-08T23:54:12.483Z,44.30
2019-06-08T23:56:40.277Z,43.90
2019-06-08T23:59:09.449Z,44.20
